createdAt,value
2023-02-19T00:01:01.525Z,78.52
2023-02-19T00:04:18.193Z,78.80
2023-02-19T00:07:20.407Z,79.70
2023-02-19T00:10:22.617Z,80.64
2023-02-19T00:13:24.833Z,81.58
2023-02-19T00:16:32.374Z,81.35
2023-02-19T00:19:34.573Z,81.88
2023-02-19T00:22:36.986Z,82.05
2023-02-19T00:25:39.189Z,82.28
2023-02-19T00:28:41.410Z,82.29
2023-02-19T00:31:44.587Z,82.84
2023-02-19T00:34:46.874Z,83.66
2023-02-19T00:37:49.070Z,83.20
2023-02-19T00:40:51.266Z,82.99
2023-02-19T00:43:58.675Z,82.91
2023-02-19T00:47:00.917Z,82.77
2023-02-19T00:50:03.252Z,82.36
2023-02-19T00:53:05.494Z,81.79
2023-02-19T00:56:08.369Z,81.35
2023-02-19T00:59:11.189Z,81.02
2023-02-19T01:02:13.422Z,80.83
2023-02-19T01:05:15.666Z,81.03
2023-02-19T01:08:18.699Z,80.88
2023-02-19T01:11:20.950Z,80.75
2023-02-19T01:14:23.442Z,80.23
2023-02-19T01:17:25.787Z,80.06
2023-02-19T01:20:28.216Z,80.02
2023-02-19T01:23:30.527Z,80.07
2023-02-19T01:26:33.690Z,79.65
2023-02-19T01:29:38.094Z,79.43
2023-02-19T01:32:40.892Z,79.38
2023-02-19T01:35:43.195Z,79.58
2023-02-19T01:38:46.518Z,79.62
2023-02-19T01:41:48.867Z,79.61
2023-02-19T01:44:51.077Z,80.06
2023-02-19T01:48:02.416Z,79.89
2023-02-19T01:51:11.319Z,79.63
2023-02-19T01:54:17.718Z,79.56
2023-02-19T01:57:25.395Z,79.35
2023-02-19T02:00:28.110Z,79.17
2023-02-19T02:03:31.468Z,78.97
2023-02-19T02:06:38.957Z,79.17
2023-02-19T02:09:59.556Z,78.57
2023-02-19T02:13:05.730Z,78.70
2023-02-19T02:16:31.291Z,78.38
2023-02-19T02:19:48.158Z,78.03
2023-02-19T02:23:43.798Z,77.99
2023-02-19T02:27:01.275Z,78.00
2023-02-19T02:30:25.421Z,77.81
2023-02-19T02:33:38.023Z,77.60
2023-02-19T02:36:44.417Z,77.61
2023-02-19T02:39:49.992Z,77.45
2023-02-19T02:42:52.428Z,77.59
2023-02-19T02:45:54.875Z,77.62
2023-02-19T02:49:17.860Z,77.37
2023-02-19T02:52:39.432Z,77.31
2023-02-19T02:55:45.629Z,77.31
2023-02-19T02:58:50.346Z,77.37
2023-02-19T03:02:18.858Z,77.57
2023-02-19T03:05:50.750Z,77.40
2023-02-19T03:09:05.507Z,77.19
2023-02-19T03:12:32.939Z,77.01
2023-02-19T03:16:01.677Z,76.95
2023-02-19T03:19:20.556Z,76.71
2023-02-19T03:22:32.590Z,76.67
2023-02-19T03:25:56.426Z,76.92
2023-02-19T03:29:23.568Z,76.89
2023-02-19T03:32:34.513Z,76.40
2023-02-19T03:35:41.855Z,76.53
2023-02-19T03:38:59.621Z,76.67
2023-02-19T03:42:09.133Z,76.12
2023-02-19T03:45:45.476Z,76.22
2023-02-19T03:48:53.422Z,76.24
2023-02-19T03:52:01.326Z,76.33
2023-02-19T03:55:22.550Z,76.22
2023-02-19T03:58:48.313Z,76.54
2023-02-19T04:01:56.697Z,76.71
2023-02-19T04:05:14.085Z,76.52
2023-02-19T04:08:23.612Z,76.49
2023-02-19T04:11:33.411Z,76.60
2023-02-19T04:14:50.289Z,76.31
2023-02-19T04:17:59.416Z,76.48
2023-02-19T04:21:03.443Z,76.39
2023-02-19T04:24:14.815Z,76.25
2023-02-19T04:27:17.897Z,76.26
2023-02-19T04:30:21.739Z,76.30
2023-02-19T04:33:24.020Z,76.08
2023-02-19T04:36:26.279Z,76.12
2023-02-19T04:39:28.535Z,76.02
2023-02-19T04:42:30.780Z,75.95
2023-02-19T04:45:33.037Z,75.85
2023-02-19T04:48:35.790Z,75.95
2023-02-19T04:51:38.707Z,75.62
2023-02-19T04:54:40.964Z,75.97
2023-02-19T04:57:43.191Z,75.75
2023-02-19T05:00:46.385Z,75.72
2023-02-19T05:03:48.602Z,75.56
2023-02-19T05:06:50.849Z,75.62
2023-02-19T05:09:53.096Z,75.96
2023-02-19T05:12:57.893Z,76.03
2023-02-19T05:16:06.087Z,76.24
2023-02-19T05:19:11.382Z,76.13
2023-02-19T05:22:13.682Z,76.20
2023-02-19T05:25:16.002Z,76.18
2023-02-19T05:28:18.483Z,76.17
2023-02-19T05:31:21.187Z,75.84
2023-02-19T05:34:23.504Z,75.78
2023-02-19T05:37:25.766Z,75.98
2023-02-19T05:40:28.005Z,76.08
2023-02-19T05:43:30.223Z,75.96
2023-02-19T05:46:32.687Z,75.91
2023-02-19T05:49:34.925Z,75.51
2023-02-19T05:52:37.147Z,75.58
2023-02-19T05:55:39.361Z,75.53
2023-02-19T05:58:41.537Z,75.34
2023-02-19T06:01:44.050Z,75.37
2023-02-19T06:04:46.249Z,74.93
2023-02-19T06:07:50.496Z,74.96
2023-02-19T06:10:52.707Z,74.91
2023-02-19T06:13:54.923Z,75.51
2023-02-19T06:16:57.142Z,76.06
2023-02-19T06:20:01.915Z,76.43
2023-02-19T06:23:04.157Z,76.29
2023-02-19T06:26:13.754Z,76.24
2023-02-19T06:29:17.061Z,76.01
2023-02-19T06:32:19.367Z,75.83
2023-02-19T06:35:21.924Z,75.00
2023-02-19T06:38:24.285Z,74.70
2023-02-19T06:41:26.620Z,71.82
2023-02-19T06:44:28.827Z,72.32
2023-02-19T06:47:32.685Z,71.30
2023-02-19T06:50:34.990Z,71.66
2023-02-19T06:53:37.251Z,72.16
2023-02-19T06:56:40.734Z,72.79
2023-02-19T06:59:42.921Z,73.12
2023-02-19T07:02:45.138Z,73.34
2023-02-19T07:05:47.644Z,73.26
2023-02-19T07:08:50.854Z,73.56
2023-02-19T07:11:53.356Z,73.43
2023-02-19T07:14:55.559Z,73.14
2023-02-19T07:17:57.784Z,72.95
2023-02-19T07:21:10.261Z,72.80
2023-02-19T07:24:12.884Z,72.53
2023-02-19T07:27:15.118Z,72.41
2023-02-19T07:30:17.492Z,72.36
2023-02-19T07:33:19.791Z,72.66
2023-02-19T07:36:23.965Z,72.65
2023-02-19T07:39:26.329Z,72.48
2023-02-19T07:42:28.541Z,73.09
2023-02-19T07:45:30.853Z,72.23
2023-02-19T07:48:34.996Z,71.90
2023-02-19T07:51:39.877Z,71.61
2023-02-19T07:54:42.122Z,71.02
2023-02-19T07:57:45.499Z,69.99
2023-02-19T08:00:47.744Z,69.29
2023-02-19T08:03:50.586Z,68.94
2023-02-19T08:06:53.453Z,67.28
2023-02-19T08:10:15.622Z,66.64
2023-02-19T08:13:22.921Z,65.86
2023-02-19T08:16:40.654Z,65.27
2023-02-19T08:19:44.563Z,65.58
2023-02-19T08:22:46.813Z,66.00
2023-02-19T08:25:51.219Z,65.42
2023-02-19T08:28:53.513Z,66.20
2023-02-19T08:31:56.924Z,66.78
2023-02-19T08:34:59.229Z,67.07
2023-02-19T08:38:01.556Z,67.42
2023-02-19T08:41:06.218Z,67.01
2023-02-19T08:44:08.535Z,66.95
2023-02-19T08:47:10.797Z,68.27
2023-02-19T08:50:13.179Z,67.31
2023-02-19T08:53:15.424Z,67.20
2023-02-19T08:56:17.856Z,67.83
2023-02-19T08:59:20.728Z,67.35
2023-02-19T09:02:26.152Z,67.32
2023-02-19T09:05:28.360Z,67.95
2023-02-19T09:08:30.584Z,68.56
2023-02-19T09:11:32.799Z,67.71
2023-02-19T09:14:35.862Z,67.46
2023-02-19T09:17:38.122Z,67.52
2023-02-19T09:20:40.352Z,67.12
2023-02-19T09:23:42.620Z,67.14
2023-02-19T09:26:44.881Z,67.09
2023-02-19T09:29:47.518Z,67.82
2023-02-19T09:32:49.734Z,67.04
2023-02-19T09:35:51.981Z,67.11
2023-02-19T09:38:54.248Z,67.23
2023-02-19T09:42:23.239Z,66.99
2023-02-19T09:45:26.828Z,66.43
2023-02-19T09:48:29.353Z,66.85
2023-02-19T09:51:34.338Z,66.91
2023-02-19T09:54:38.519Z,67.05
2023-02-19T09:57:41.574Z,67.98
2023-02-19T10:00:47.793Z,68.40
2023-02-19T10:03:50.122Z,68.57
2023-02-19T10:06:52.965Z,69.08
2023-02-19T10:10:02.716Z,69.29
2023-02-19T10:13:23.137Z,69.99
2023-02-19T10:16:27.379Z,69.65
2023-02-19T10:19:29.602Z,69.83
2023-02-19T10:22:33.482Z,69.82
2023-02-19T10:25:37.138Z,70.63
2023-02-19T10:28:39.523Z,70.57
2023-02-19T10:31:42.026Z,71.03
2023-02-19T10:34:44.606Z,71.27
2023-02-19T10:37:49.807Z,71.29
2023-02-19T10:40:59.179Z,71.29
2023-02-19T10:44:30.758Z,71.08
2023-02-19T10:47:33.308Z,71.15
2023-02-19T10:50:39.366Z,70.76
2023-02-19T10:53:47.735Z,70.52
2023-02-19T10:56:49.982Z,70.60
2023-02-19T11:00:01.881Z,70.90
2023-02-19T11:03:21.879Z,70.73
2023-02-19T11:06:26.971Z,70.72
2023-02-19T11:09:36.989Z,70.69
2023-02-19T11:12:39.223Z,70.01
2023-02-19T11:15:41.980Z,69.72
2023-02-19T11:18:45.163Z,69.05
2023-02-19T11:21:48.172Z,68.15
2023-02-19T11:24:56.139Z,66.97
2023-02-19T11:28:08.494Z,65.76
2023-02-19T11:31:19.747Z,64.37
2023-02-19T11:34:24.713Z,63.57
2023-02-19T11:37:26.906Z,64.87
2023-02-19T11:40:41.150Z,62.43
2023-02-19T11:44:12.830Z,57.87
2023-02-19T11:47:39.407Z,55.20
2023-02-19T11:51:05.490Z,56.26
2023-02-19T11:54:27.287Z,49.65
2023-02-19T11:57:50.430Z,47.74
2023-02-19T12:01:05.979Z,50.48
2023-02-19T12:04:37.742Z,53.35
2023-02-19T12:07:55.545Z,47.17
2023-02-19T12:11:16.094Z,47.01
2023-02-19T12:14:33.837Z,47.56
2023-02-19T12:18:04.193Z,44.67
2023-02-19T12:21:06.364Z,42.88
2023-02-19T12:24:27.898Z,44.23
2023-02-19T12:28:00.642Z,46.92
2023-02-19T12:31:44.597Z,49.20
2023-02-19T12:35:04.745Z,50.78
2023-02-19T12:38:06.933Z,51.72
2023-02-19T12:41:21.004Z,51.95
2023-02-19T12:44:34.809Z,50.11
2023-02-19T12:47:42.210Z,46.80
2023-02-19T12:50:47.755Z,49.88
2023-02-19T12:53:58.935Z,51.39
2023-02-19T12:57:01.160Z,52.54
2023-02-19T13:00:21.076Z,53.48
2023-02-19T13:03:32.413Z,54.21
2023-02-19T13:06:57.735Z,55.06
2023-02-19T13:10:15.276Z,55.55
2023-02-19T13:13:42.333Z,56.26
2023-02-19T13:16:50.722Z,53.46
2023-02-19T13:19:58.186Z,49.41
2023-02-19T13:23:25.717Z,46.83
2023-02-19T13:26:42.699Z,45.42
2023-02-19T13:29:52.138Z,46.78
2023-02-19T13:33:06.873Z,43.54
2023-02-19T13:36:22.627Z,41.41
2023-02-19T13:39:31.897Z,41.00
2023-02-19T13:42:36.627Z,39.85
2023-02-19T13:45:42.770Z,39.20
2023-02-19T13:48:45.132Z,38.39
2023-02-19T13:51:49.627Z,39.21
2023-02-19T13:54:51.839Z,40.30
2023-02-19T13:57:54.123Z,41.09
2023-02-19T14:00:56.415Z,41.35
2023-02-19T14:04:18.583Z,40.51
2023-02-19T14:07:34.856Z,40.36
2023-02-19T14:11:03.290Z,39.31
2023-02-19T14:14:23.762Z,39.32
2023-02-19T14:17:38.983Z,40.28
2023-02-19T14:20:45.445Z,40.15
2023-02-19T14:23:54.518Z,40.46
2023-02-19T14:26:57.549Z,41.68
2023-02-19T14:30:00.129Z,41.04
2023-02-19T14:33:10.643Z,40.35
2023-02-19T14:36:25.207Z,41.41
2023-02-19T14:39:36.412Z,40.13
2023-02-19T14:42:39.033Z,41.29
2023-02-19T14:45:44.923Z,42.49
2023-02-19T14:48:49.445Z,43.45
2023-02-19T14:51:56.886Z,43.14
2023-02-19T14:55:06.095Z,43.57
2023-02-19T14:58:23.802Z,42.47
2023-02-19T15:01:27.746Z,41.87
2023-02-19T15:04:36.683Z,42.11
2023-02-19T15:07:39.051Z,41.94
2023-02-19T15:10:42.513Z,43.47
2023-02-19T15:13:50.359Z,45.59
2023-02-19T15:16:58.696Z,46.59
2023-02-19T15:20:08.687Z,47.17
2023-02-19T15:23:18.800Z,47.71
2023-02-19T15:26:23.496Z,48.40
2023-02-19T15:29:27.763Z,49.89
2023-02-19T15:32:30.022Z,50.90
2023-02-19T15:35:33.480Z,53.11
2023-02-19T15:38:35.908Z,55.77
2023-02-19T15:41:38.459Z,56.72
2023-02-19T15:44:48.715Z,56.72
2023-02-19T15:48:14.416Z,57.42
2023-02-19T15:51:31.174Z,58.94
2023-02-19T15:54:49.061Z,59.58
2023-02-19T15:58:00.456Z,60.62
2023-02-19T16:01:11.053Z,61.27
2023-02-19T16:04:16.529Z,61.99
2023-02-19T16:07:27.478Z,62.43
2023-02-19T16:10:32.560Z,62.79
2023-02-19T16:13:35.297Z,63.12
2023-02-19T16:16:40.574Z,63.42
2023-02-19T16:19:51.927Z,64.44
2023-02-19T16:23:17.390Z,65.06
2023-02-19T16:26:19.858Z,65.30
2023-02-19T16:29:27.078Z,65.63
2023-02-19T16:32:29.436Z,65.77
2023-02-19T16:35:37.171Z,66.35
2023-02-19T16:38:39.489Z,66.56
2023-02-19T16:41:47.655Z,66.44
2023-02-19T16:44:49.926Z,66.42
2023-02-19T16:47:52.171Z,66.92
2023-02-19T16:50:54.501Z,66.94
2023-02-19T16:53:56.703Z,67.44
2023-02-19T16:56:58.883Z,67.57
2023-02-19T17:00:02.300Z,67.73
2023-02-19T17:03:09.532Z,67.84
2023-02-19T17:06:12.472Z,67.85
2023-02-19T17:09:14.813Z,67.95
2023-02-19T17:12:17.739Z,68.10
2023-02-19T17:15:20.731Z,68.53
2023-02-19T17:18:23.155Z,68.66
2023-02-19T17:21:28.472Z,69.16
2023-02-19T17:24:30.766Z,69.38
2023-02-19T17:27:32.990Z,69.66
2023-02-19T17:30:35.463Z,69.99
2023-02-19T17:33:38.352Z,70.07
2023-02-19T17:36:42.939Z,70.12
2023-02-19T17:39:45.221Z,70.29
2023-02-19T17:42:47.515Z,70.63
2023-02-19T17:45:49.815Z,70.99
2023-02-19T17:48:53.084Z,70.75
2023-02-19T17:51:55.344Z,70.76
2023-02-19T17:54:57.573Z,70.41
2023-02-19T17:58:00.414Z,70.32
2023-02-19T18:01:02.761Z,70.35
2023-02-19T18:04:05.404Z,70.06
2023-02-19T18:07:07.765Z,69.95
2023-02-19T18:10:10.577Z,70.07
2023-02-19T18:13:12.845Z,69.75
2023-02-19T18:16:16.212Z,69.89
2023-02-19T18:19:18.884Z,69.99
2023-02-19T18:22:21.403Z,70.19
2023-02-19T18:25:23.761Z,70.08
2023-02-19T18:28:25.965Z,70.20
2023-02-19T18:31:28.291Z,70.35
2023-02-19T18:34:30.594Z,70.18
2023-02-19T18:37:33.930Z,70.40
2023-02-19T18:40:36.220Z,70.51
2023-02-19T18:43:38.518Z,70.67
2023-02-19T18:46:40.828Z,70.31
2023-02-19T18:49:50.213Z,70.16
2023-02-19T18:52:52.741Z,70.43
2023-02-19T18:55:54.941Z,70.75
2023-02-19T18:59:00.033Z,70.62
2023-02-19T19:02:05.037Z,70.42
2023-02-19T19:05:07.871Z,70.82
2023-02-19T19:08:10.124Z,70.84
2023-02-19T19:11:12.665Z,71.09
2023-02-19T19:14:15.170Z,71.32
2023-02-19T19:17:17.394Z,68.25
2023-02-19T19:20:22.032Z,67.75
2023-02-19T19:23:24.257Z,67.91
2023-02-19T19:26:26.524Z,68.57
2023-02-19T19:29:28.742Z,69.47
2023-02-19T19:32:31.232Z,73.03
2023-02-19T19:35:33.581Z,75.16
2023-02-19T19:38:35.944Z,76.69
2023-02-19T19:41:38.278Z,77.73
2023-02-19T19:44:40.614Z,77.58
2023-02-19T19:47:42.890Z,77.40
2023-02-19T19:50:45.133Z,76.93
2023-02-19T19:53:49.105Z,76.18
2023-02-19T19:56:51.477Z,75.87
2023-02-19T19:59:53.775Z,75.60
2023-02-19T20:02:56.178Z,75.00
2023-02-19T20:05:58.621Z,74.76
2023-02-19T20:09:00.962Z,74.33
2023-02-19T20:12:04.438Z,74.43
2023-02-19T20:15:07.981Z,74.50
2023-02-19T20:18:10.169Z,74.30
2023-02-19T20:21:14.086Z,74.35
2023-02-19T20:24:19.326Z,74.81
2023-02-19T20:27:22.994Z,75.09
2023-02-19T20:30:25.505Z,75.11
2023-02-19T20:33:27.723Z,75.09
2023-02-19T20:36:30.230Z,74.96
2023-02-19T20:39:34.392Z,75.30
2023-02-19T20:42:36.583Z,75.04
2023-02-19T20:45:39.269Z,74.33
2023-02-19T20:48:41.607Z,74.10
2023-02-19T20:51:49.993Z,73.35
2023-02-19T20:54:56.703Z,73.10
2023-02-19T20:57:58.951Z,73.06
2023-02-19T21:01:01.262Z,72.68
2023-02-19T21:04:03.586Z,73.00
2023-02-19T21:07:05.998Z,72.55
2023-02-19T21:10:08.951Z,72.10
2023-02-19T21:13:11.337Z,72.03
2023-02-19T21:16:14.043Z,72.08
2023-02-19T21:19:16.904Z,71.87
2023-02-19T21:22:19.111Z,71.66
2023-02-19T21:25:21.342Z,71.22
2023-02-19T21:28:24.698Z,70.85
2023-02-19T21:31:36.247Z,71.08
2023-02-19T21:34:38.519Z,70.47
2023-02-19T21:37:44.466Z,69.88
2023-02-19T21:40:46.714Z,69.41
2023-02-19T21:43:48.927Z,69.43
2023-02-19T21:46:51.654Z,69.12
2023-02-19T21:49:54.358Z,69.53
2023-02-19T21:52:56.559Z,69.37
2023-02-19T21:56:01.377Z,69.76
2023-02-19T21:59:04.006Z,69.80
2023-02-19T22:02:06.431Z,70.03
2023-02-19T22:05:09.031Z,70.24
2023-02-19T22:08:11.230Z,70.28
2023-02-19T22:11:13.506Z,70.23
2023-02-19T22:14:15.852Z,70.33
2023-02-19T22:17:18.386Z,70.19
2023-02-19T22:20:21.742Z,70.41
2023-02-19T22:23:24.063Z,70.64
2023-02-19T22:26:35.838Z,70.36
2023-02-19T22:29:38.096Z,70.42
2023-02-19T22:32:40.939Z,70.50
2023-02-19T22:35:43.240Z,70.67
2023-02-19T22:38:45.682Z,70.77
2023-02-19T22:41:48.098Z,71.37
2023-02-19T22:44:50.364Z,71.72
2023-02-19T22:47:56.322Z,71.78
2023-02-19T22:50:59.019Z,71.98
2023-02-19T22:54:01.603Z,72.01
2023-02-19T22:57:04.424Z,72.63
2023-02-19T23:00:07.690Z,72.64
2023-02-19T23:03:09.882Z,73.31
2023-02-19T23:06:12.475Z,72.85
2023-02-19T23:09:19.535Z,72.86
2023-02-19T23:12:21.722Z,72.82
2023-02-19T23:15:23.903Z,72.77
2023-02-19T23:18:26.128Z,72.41
2023-02-19T23:21:28.396Z,72.25
2023-02-19T23:24:30.796Z,72.43
2023-02-19T23:27:32.975Z,71.17
2023-02-19T23:30:35.337Z,70.89
2023-02-19T23:33:37.633Z,70.49
2023-02-19T23:36:44.076Z,70.81
2023-02-19T23:39:46.259Z,70.96
2023-02-19T23:42:48.636Z,70.78
2023-02-19T23:45:50.901Z,71.50
2023-02-19T23:48:53.120Z,71.35
2023-02-19T23:51:55.316Z,71.27
2023-02-19T23:54:57.623Z,71.89
2023-02-19T23:57:59.984Z,72.21
